Winnebago, NE (68071)

3:50 PM CDT on September 15, 2019 (GMT -0500)
The Hittles Observatory | | Change Station
Active Advisory: Flood Warning

Elev 1079 ft 42.37 °N, 96.48 °W | Updated 6 seconds ago

Clear
Clear
86.7 °F
Feels Like 95 °F
N
1.6
Wind Variable Wind from ENE
Gusts 3.4 mph

Today
High -- | Low -- °F
--% Chance of Precip.
Yesterday
High -- | Low -- °F
Precip. -- in
Pressure 29.97 in
Visibility 10.0 miles
Clouds Clear
Heat Index 95 °F
Dew Point 74 °F
Humidity 67%
Rainfall 0.00 in
Snow Depth Not available.
7:05 AM 7:35 PM
Full, 97% visible
METAR KSUX 151952Z 12005KT 10SM CLR 31/21 A2999 RMK AO2 SLP148 T03060206
Pressure 29.97 in
Visibility 10.0 miles
Clouds Clear
Heat Index 95 °F
Dew Point 74 °F
Humidity 67%
Rainfall 0.00 in
Snow Depth Not available.
7:05 AM 7:35 PM
Full, 97% visible
METAR KSUX 151952Z 12005KT 10SM CLR 31/21 A2999 RMK AO2 SLP148 T03060206

Get Your Daily Forecast Email!

Thanks for signing up!

Be on the lookout for a verification email in your inbox.

You'll start receiving severe weather alerts in your inbox..

×

10-Day Weather Forecast

Almanac

Astronomy

Sep. 15, 2019 Rise Set
Actual Time
Civil Twilight
Nautical Twilight
Astronomical Twilight
Moon
Length of Visible Light
Length of Day
Tomorrow will be .
, % of the Moon is Illuminated

Today's Extremes

State Highs State Lows

Community

WunderPhotos

Category 6

Welcome to Category 6. This is the collective home for Weather Underground's featured writeups by Dr. Jeff Masters (right), Bob Henson (left), Chris Burt, and other regular contributors.

Nearby

Air Quality

  Air Quality AQ Index Pollutant
Not available.

Snow Depth

Station Depth Elevation

Earthquake Activity

City Distance Mag. Time & Date
Minimum magnitude displayed is 2.5.

Coastal Water Temperatures

Place Temperature

Stations

Nearby Weather Stations

Station Location Temp. Windchill Dew Point Humidity Wind Precip. Elev Updated Type
                   

Watches & Warnings

Flood Warning
Issued: 9:44 AM CDT Sep. 15, 2019 – National Weather Service

The Flood Warning continues for
the Missouri River at Decatur.
* From Monday morning to Monday September 23... or until the warning
is cancelled.
* At 9:30 am Sunday the stage was 33.8 feet... or 1.2 feet below
flood stage.
* Flood stage is 35.0 feet.
* Minor flooding is forecast.
* Forecast... rise above flood stage by tomorrow morning and continue
to rise to near 36.3 feet by early Thursday morning.


Lat... Lon 4228 9643 4228 9610 4203 9594 4180 9595
      4180 9624